Flight Track Log - Related Links

Times and Time Zones

All times are in EST time to prevent confusion due to time zone crossing. See the UCA3 flight status page for this flight to view local times or setup timezone preferences in your user account.

Time Position Orientation Groundspeed Altitude Reporting Facility
EST Latitude Longitude Course Direction KTS MPH feet Rate Location/Type
Tue 04:13:22 PM 40.6667 -74.1833 277° West 140 161 900  Level New York TRACON
Tue 04:15:42 PM 40.6744 -74.2653 277° West 137 158 5,000 1,710 Climbing New York Center
Tue 04:16:42 PM 40.7131 -74.3000 326° Northwest 152 175 6,600 1,678 Climbing New York Center
Tue 04:17:40 PM 40.7456 -74.3292 326° Northwest 159 183 8,300 1,815 Climbing New York Center
Tue 04:18:41 PM 40.7819 -74.3611 326° Northwest 152 175 10,200 1,587 Climbing New York Center
Tue 04:19:41 PM 40.8186 -74.3961 324° Northwest 152 175 11,500 893 Climbing New York Center
Tue 04:20:42 PM 40.8569 -74.4336 324° Northwest 162 186 12,000 248 Climbing New York Center
Tue 04:21:42 PM 40.9075 -74.4778 327° Northwest 197 227 12,000 51 Level New York Center
Tue 04:22:40 PM 40.9581 -74.5272 324° Northwest 215 247 12,100 254 Climbing New York Center
Tue 04:23:40 PM 41.0106 -74.5767 325° Northwest 229 264 12,500 942 Climbing New York Center
Tue 04:24:41 PM 41.0572 -74.6178 326° Northwest 214 246 14,000 793 Climbing New York Center
Tue 04:25:41 PM 41.1017 -74.6617 323° Northwest 199 229 14,100 50 Climbing New York Center
Tue 04:26:40 PM 41.1458 -74.7139 318° Northwest 199 229 14,100  Level New York Center
Tue 04:27:41 PM 41.1747 -74.7817 300° West 205 236 14,100  Level New York Center
Tue 04:28:42 PM 41.2036 -74.8497 299° West 216 249 14,100  Level New York Center
Tue 04:29:42 PM 41.2325 -74.9147 301° West 221 254 14,100  Level New York Center
Tue 04:30:40 PM 41.2653 -74.9886 301° West 221 254 14,100 -51 Level New York Center
Tue 04:31:40 PM 41.2922 -75.0536 299° West 213 245 14,000 -49 Descending New York Center
Tue 04:32:42 PM 41.3211 -75.1219 299° West 208 239 14,000  Level New York Center
Tue 04:33:42 PM 41.3458 -75.1817 299° West 208 239 14,000  Level New York Center
Tue 04:34:40 PM 41.3764 -75.2525 300° West 208 239 14,000  Level New York Center
Tue 04:35:40 PM 41.4053 -75.3181 300° West 208 239 14,000  Level New York Center
Tue 04:36:41 PM 41.4339 -75.3864 300° West 208 239 14,000  Level New York Center
Tue 04:37:00 PM 41.4412 -75.4072 300° West  Level FlightAware Approximate
Tue 04:37:41 PM 41.4586 -75.4464 299° West 208 239 14,000  Level New York Center
Tue 04:38:41 PM 41.4872 -75.5119 300° West 203 234 14,000  Level New York Center
Tue 04:39:42 PM 41.5175 -75.5861 299° West 203 234 14,000  Level New York Center
Tue 04:40:40 PM 41.5439 -75.6519 298° West 203 234 14,000  Level New York Center
Tue 04:42:00 PM 41.5798 -75.7410 298° West  Level FlightAware Approximate
Tue 04:42:40 PM 41.6008 -75.7892 298° West 203 234 14,000  Level New York Center
Tue 04:43:41 PM 41.6272 -75.8550 298° West 203 234 14,000  Level New York Center
Tue 04:44:42 PM 41.6514 -75.9178 297° West 203 234 14,000  Level New York Center
Tue 04:45:40 PM 41.6817 -75.9925 299° West 203 234 14,000  Level New York Center
Tue 04:46:41 PM 41.7097 -76.0614 299° West 203 234 14,000  Level New York Center
Tue 04:47:42 PM 41.7358 -76.1300 297° West 203 234 14,000  Level New York Center
Tue 04:48:42 PM 41.7622 -76.1906 300° West 208 239 14,000  Level New York Center
Tue 04:49:40 PM 41.7903 -76.2597 299° West 208 239 14,000  Level New York Center
Tue 04:50:40 PM 41.8200 -76.3372 297° West 208 239 14,000  Level New York Center
Tue 04:51:40 PM 41.8461 -76.4008 299° West 208 239 14,000  Level New York Center
Tue 04:52:41 PM 41.8742 -76.4700 299° West 208 239 14,000  Level New York Center
Tue 04:53:43 PM 41.9019 -76.5392 298° West 208 239 14,000  Level New York Center
Tue 04:54:41 PM 41.9278 -76.6083 297° West 208 239 14,000  Level New York Center
Tue 04:55:40 PM 41.9556 -76.6778 298° West 208 239 14,000  Level New York Center
Tue 04:56:41 PM 41.9869 -76.7558 298° West 208 239 14,000  Level New York Center
Tue 04:57:41 PM 42.0092 -76.8108 299° West 208 239 14,000  Level New York Center
Tue 04:58:48 PM 42.0472 -76.9086 298° West 219 252 14,000  Level Cleveland Center
Tue 04:59:48 PM 42.0767 -76.9797 299° West 219 252 14,000  Level Cleveland Center
Tue 05:00:48 PM 42.1017 -77.0511 295° West 219 252 14,000  Level Cleveland Center
Tue 05:01:48 PM 42.1269 -77.1253 295° West 214 246 14,000  Level Cleveland Center
Tue 05:02:48 PM 42.1519 -77.1997 294° West 214 246 14,000  Level Cleveland Center
Tue 05:03:48 PM 42.1750 -77.2742 293° West 214 246 14,000  Level Cleveland Center
Tue 05:04:48 PM 42.2000 -77.3483 294° West 214 246 14,000  Level Cleveland Center
Tue 05:05:48 PM 42.2250 -77.4231 294° West 214 246 14,000  Level Cleveland Center
Tue 05:06:48 PM 42.2500 -77.4975 294° West 214 246 14,000 -150 Level Cleveland Center
Tue 05:07:48 PM 42.2750 -77.5747 294° West 214 246 13,700 -400 Descending Cleveland Center
Tue 05:08:48 PM 42.3000 -77.6494 294° West 214 246 13,200 -500 Descending Cleveland Center
Tue 05:09:48 PM 42.3247 -77.7269 293° West 219 252 12,700 -500 Descending Cleveland Center
Tue 05:10:48 PM 42.3497 -77.8044 294° West 224 258 12,200 -450 Descending Cleveland Center
Tue 05:11:48 PM 42.3700 -77.8711 292° West 230 265 11,800 -450 Descending Cleveland Center
Tue 05:12:48 PM 42.3969 -77.9569 293° West 230 265 11,300 -500 Descending Cleveland Center
Tue 05:13:48 PM 42.4236 -78.0347 295° West 230 265 10,800 -500 Descending Cleveland Center
Tue 05:14:48 PM 42.4506 -78.1153 294° West 230 265 10,300 -400 Descending Cleveland Center
Tue 05:15:48 PM 42.4750 -78.1931 293° West 230 265 10,000 -150 Descending Cleveland Center
Tue 05:16:48 PM 42.4994 -78.2683 294° West 230 265 10,000 -50 Level Cleveland Center
Tue 05:17:48 PM 42.5300 -78.3375 301° West 230 265 9,900 -450 Descending Cleveland Center
Tue 05:18:48 PM 42.6011 -78.3492 353° North 215 247 9,100 -750 Descending Cleveland Center
Tue 05:19:48 PM 42.6683 -78.3667 349° North 229 264 8,400 -650 Descending Cleveland Center
Tue 05:20:48 PM 42.7417 -78.3867 349° North 258 297 7,800 -442 Descending Cleveland Center
Tue 05:22:58 PM 42.8833 -78.4167 351° North 238 274 7,000 -253 Descending Buffalo TRACON
Tue 05:23:58 PM 42.9500 -78.4333 350° North 227 261 7,000 -595 Level Buffalo TRACON
Tue 05:24:59 PM 43.0000 -78.4833 324° Northwest 223 257 5,800 -1,488 Descending Buffalo TRACON
Tue 05:25:59 PM 43.0500 -78.5167 334° Northwest 214 246 4,000 -1,700 Descending Buffalo TRACON
Tue 05:26:59 PM 43.0500 -78.6000 270° West 222 255 2,400 -850 Descending Buffalo TRACON
Tue 05:27:59 PM 43.0000 -78.6500 216° Southwest 191 220 2,300 -450 Descending Buffalo TRACON
Tue 05:28:59 PM 42.9833 -78.6833 236° Southwest 114 131 1,500 -650 Descending Buffalo TRACON
Tue 05:29:59 PM 42.9500 -78.7000 200° South 96 110 1,000 -500 Descending Buffalo TRACON
Tue 05:31:00 PM 42.9210 -78.7043 324° Northwest  Level FlightAware Approximate

Login

Don't have an account? Register now (free) for customized features, flight alerts, and more!